createdAt,value
2018-09-19T00:01:43.893Z,78.10
2018-09-19T00:04:49.258Z,77.90
2018-09-19T00:07:54.601Z,77.90
2018-09-19T00:10:59.952Z,78.20
2018-09-19T00:14:05.674Z,78.20
2018-09-19T00:17:11.018Z,78.30
2018-09-19T00:20:16.509Z,78.20
2018-09-19T00:23:21.986Z,78.50
2018-09-19T00:26:27.577Z,79.00
2018-09-19T00:29:32.930Z,79.20
2018-09-19T00:32:38.305Z,79.70
2018-09-19T00:35:43.689Z,80.00
2018-09-19T00:38:49.307Z,80.00
2018-09-19T00:41:54.845Z,80.30
2018-09-19T00:45:00.242Z,80.30
2018-09-19T00:48:05.970Z,80.00
2018-09-19T00:51:11.344Z,80.20
2018-09-19T00:54:16.723Z,79.90
2018-09-19T00:57:22.105Z,79.80
2018-09-19T01:00:27.490Z,80.00
2018-09-19T01:03:32.862Z,79.60
2018-09-19T01:06:38.252Z,79.30
2018-09-19T01:09:43.650Z,79.30
2018-09-19T01:12:49.085Z,79.30
2018-09-19T01:15:54.518Z,79.30
2018-09-19T01:19:00.247Z,80.10
2018-09-19T01:22:05.629Z,79.40
2018-09-19T01:25:11.111Z,79.70
2018-09-19T01:28:16.483Z,79.80
2018-09-19T01:31:22.198Z,79.70
2018-09-19T01:34:27.593Z,79.90
2018-09-19T01:37:32.983Z,80.10
2018-09-19T01:40:38.401Z,80.10
2018-09-19T01:43:44.634Z,80.20
2018-09-19T01:46:50.029Z,80.40
2018-09-19T01:49:55.390Z,80.50
2018-09-19T01:53:00.802Z,80.60
2018-09-19T01:56:06.219Z,80.60
2018-09-19T01:59:11.593Z,80.70
2018-09-19T02:02:16.975Z,80.80
2018-09-19T02:05:22.337Z,80.90
2018-09-19T02:08:27.747Z,81.00
2018-09-19T02:11:33.139Z,81.20
2018-09-19T02:14:38.497Z,81.30
2018-09-19T02:17:44.241Z,81.40
2018-09-19T02:20:49.666Z,81.30
2018-09-19T02:23:55.230Z,81.40
2018-09-19T02:27:00.618Z,81.30
2018-09-19T02:30:06.040Z,81.40
2018-09-19T02:33:11.417Z,81.50
2018-09-19T02:36:26.960Z,81.60
2018-09-19T02:39:32.297Z,81.60
2018-09-19T02:42:37.664Z,81.70
2018-09-19T02:45:43.216Z,81.90
2018-09-19T02:48:49.371Z,81.90
2018-09-19T02:51:58.012Z,82.10
2018-09-19T02:55:03.353Z,82.10
2018-09-19T02:58:08.709Z,83.10
2018-09-19T03:01:14.043Z,82.40
2018-09-19T03:04:19.413Z,82.60
2018-09-19T03:07:24.821Z,82.70
2018-09-19T03:10:30.204Z,82.70
2018-09-19T03:13:35.566Z,83.00
2018-09-19T03:16:41.105Z,83.10
2018-09-19T03:19:46.466Z,83.20
2018-09-19T03:22:51.827Z,83.20
2018-09-19T03:25:57.159Z,83.40
2018-09-19T03:29:02.526Z,83.50
2018-09-19T03:32:08.301Z,83.60
2018-09-19T03:35:13.721Z,83.70
2018-09-19T03:38:19.120Z,83.90
2018-09-19T03:41:24.510Z,83.80
2018-09-19T03:44:30.090Z,83.90
2018-09-19T03:47:35.506Z,84.00
2018-09-19T03:50:40.870Z,84.40
2018-09-19T03:53:46.258Z,84.40
2018-09-19T03:56:51.630Z,84.40
2018-09-19T03:59:57.034Z,84.40
2018-09-19T04:03:02.426Z,84.50
2018-09-19T04:06:07.803Z,84.70
2018-09-19T04:09:14.316Z,84.70
2018-09-19T04:12:19.683Z,84.70
2018-09-19T04:15:25.106Z,84.80
2018-09-19T04:18:30.485Z,84.90
2018-09-19T04:21:35.858Z,85.00
2018-09-19T04:24:41.253Z,84.90
2018-09-19T04:27:46.646Z,85.80
2018-09-19T04:30:52.079Z,85.30
2018-09-19T04:33:57.480Z,85.20
2018-09-19T04:37:02.878Z,85.40
2018-09-19T04:40:08.356Z,85.70
2018-09-19T04:43:13.784Z,86.00
2018-09-19T04:46:19.195Z,85.40
2018-09-19T04:49:24.594Z,85.30
2018-09-19T04:52:32.661Z,85.30
2018-09-19T04:55:38.069Z,85.10
2018-09-19T04:58:43.450Z,85.10
2018-09-19T05:01:48.929Z,85.40
2018-09-19T05:04:54.311Z,85.40
2018-09-19T05:07:59.674Z,85.60
2018-09-19T05:11:05.369Z,85.40
2018-09-19T05:14:10.745Z,85.30
2018-09-19T05:17:16.149Z,85.10
2018-09-19T05:20:21.564Z,85.10
2018-09-19T05:23:26.957Z,85.00
2018-09-19T05:26:32.374Z,84.90
2018-09-19T05:29:37.801Z,84.60
2018-09-19T05:32:43.367Z,84.70
2018-09-19T05:35:49.321Z,84.60
2018-09-19T05:38:54.759Z,84.40
2018-09-19T05:42:00.602Z,84.40
2018-09-19T05:45:06.666Z,84.20
2018-09-19T05:48:12.742Z,84.20
2018-09-19T05:51:18.169Z,84.00
2018-09-19T05:54:23.565Z,83.80
2018-09-19T05:57:29.309Z,84.00
2018-09-19T06:00:35.104Z,84.20
2018-09-19T06:03:40.465Z,83.80
2018-09-19T06:06:45.845Z,83.70
2018-09-19T06:09:51.233Z,83.60
2018-09-19T06:12:56.879Z,83.80
2018-09-19T06:16:02.945Z,83.50
2018-09-19T06:19:08.308Z,83.20
2018-09-19T06:22:13.682Z,83.10
2018-09-19T06:25:19.065Z,82.60
2018-09-19T06:28:25.797Z,82.70
2018-09-19T06:31:31.805Z,82.30
2018-09-19T06:34:37.240Z,82.00
2018-09-19T06:37:42.617Z,81.80
2018-09-19T06:40:48.038Z,81.60
2018-09-19T06:43:53.574Z,80.60
2018-09-19T06:46:59.038Z,80.50
2018-09-19T06:50:04.680Z,79.70
2018-09-19T06:53:10.922Z,79.60
2018-09-19T06:56:16.281Z,79.20
2018-09-19T06:59:21.731Z,78.80
2018-09-19T07:02:27.091Z,78.70
2018-09-19T07:05:32.439Z,78.70
2018-09-19T07:08:37.890Z,79.00
2018-09-19T07:11:43.249Z,78.80
2018-09-19T07:14:48.634Z,78.90
2018-09-19T07:17:54.035Z,78.30
2018-09-19T07:20:59.485Z,78.40
2018-09-19T07:24:04.845Z,78.80
2018-09-19T07:27:10.241Z,78.90
2018-09-19T07:30:15.573Z,78.30
2018-09-19T07:33:20.954Z,78.00
2018-09-19T07:36:26.308Z,78.00
2018-09-19T07:39:31.749Z,77.10
2018-09-19T07:42:37.098Z,77.50
2018-09-19T07:45:42.466Z,76.50
2018-09-19T07:48:47.883Z,76.40
2018-09-19T07:51:53.237Z,75.90
2018-09-19T07:54:58.590Z,75.20
2018-09-19T07:58:03.955Z,74.70
2018-09-19T08:01:09.866Z,73.30
2018-09-19T08:04:16.201Z,72.40
2018-09-19T08:07:22.107Z,71.50
2018-09-19T08:10:27.548Z,71.10
2018-09-19T08:13:33.001Z,71.20
2018-09-19T08:16:38.344Z,71.40
2018-09-19T08:19:43.777Z,71.00
2018-09-19T08:22:49.200Z,71.20
2018-09-19T08:25:54.678Z,70.40
2018-09-19T08:29:00.795Z,70.20
2018-09-19T08:32:06.689Z,68.60
2018-09-19T08:35:12.112Z,67.50
2018-09-19T08:38:17.507Z,66.10
2018-09-19T08:41:22.923Z,65.40
2018-09-19T08:44:28.311Z,65.10
2018-09-19T08:47:33.721Z,64.50
2018-09-19T08:50:39.167Z,64.20
2018-09-19T08:53:44.765Z,63.20
2018-09-19T08:56:50.494Z,64.30
2018-09-19T08:59:55.887Z,64.60
2018-09-19T09:03:01.295Z,64.40
2018-09-19T09:06:07.040Z,64.80
2018-09-19T09:09:12.457Z,65.00
2018-09-19T09:12:17.955Z,64.80
2018-09-19T09:15:23.643Z,64.90
2018-09-19T09:18:29.194Z,65.20
2018-09-19T09:21:35.134Z,65.50
2018-09-19T09:24:41.057Z,64.80
2018-09-19T09:27:46.630Z,62.80
2018-09-19T09:30:52.057Z,63.80
2018-09-19T09:33:57.439Z,63.50
2018-09-19T09:37:03.510Z,63.50
2018-09-19T09:40:09.077Z,63.60
2018-09-19T09:43:14.446Z,63.50
2018-09-19T09:46:19.864Z,62.00
2018-09-19T09:49:25.285Z,62.10
2018-09-19T09:52:30.754Z,62.10
2018-09-19T09:55:36.149Z,62.00
2018-09-19T09:58:42.231Z,61.60
2018-09-19T10:01:47.637Z,61.00
2018-09-19T10:04:53.031Z,60.00
2018-09-19T10:07:58.441Z,59.60
2018-09-19T10:11:03.834Z,59.20
2018-09-19T10:14:09.262Z,59.00
2018-09-19T10:17:14.662Z,58.40
2018-09-19T10:20:20.118Z,57.70
2018-09-19T10:23:25.519Z,57.90
2018-09-19T10:26:30.925Z,57.80
2018-09-19T10:29:36.359Z,56.60
2018-09-19T10:32:41.929Z,55.90
2018-09-19T10:35:47.323Z,56.30
2018-09-19T10:38:52.749Z,55.70
2018-09-19T10:41:58.124Z,54.90
2018-09-19T10:45:03.518Z,54.50
2018-09-19T10:48:09.017Z,52.50
2018-09-19T10:51:14.379Z,51.10
2018-09-19T10:54:20.322Z,50.00
2018-09-19T10:57:26.149Z,50.30
2018-09-19T11:00:31.534Z,49.80
2018-09-19T11:03:36.951Z,50.20
2018-09-19T11:06:42.848Z,50.20
2018-09-19T11:09:48.262Z,50.10
2018-09-19T11:12:53.635Z,50.00
2018-09-19T11:15:59.095Z,50.00
2018-09-19T11:19:04.545Z,49.60
2018-09-19T11:22:09.913Z,48.30
2018-09-19T11:25:15.881Z,48.60
2018-09-19T11:28:21.248Z,47.20
2018-09-19T11:31:26.673Z,47.10
2018-09-19T11:34:32.035Z,47.10
2018-09-19T11:37:37.421Z,45.70
2018-09-19T11:40:42.877Z,44.60
2018-09-19T11:43:48.447Z,43.80
2018-09-19T11:46:53.839Z,42.50
2018-09-19T11:49:59.217Z,41.30
2018-09-19T11:53:04.662Z,40.00
2018-09-19T11:56:10.017Z,39.90
2018-09-19T11:59:15.410Z,39.00
2018-09-19T12:02:20.805Z,38.80
2018-09-19T12:05:26.301Z,37.80
2018-09-19T12:08:31.803Z,37.90
2018-09-19T12:11:37.167Z,37.90
2018-09-19T12:14:42.590Z,37.40
2018-09-19T12:17:48.580Z,36.60
2018-09-19T12:20:53.953Z,37.00
2018-09-19T12:23:59.349Z,34.90
2018-09-19T12:27:04.801Z,33.90
2018-09-19T12:30:10.273Z,34.10
2018-09-19T12:33:15.729Z,33.30
2018-09-19T12:36:21.666Z,32.60
2018-09-19T12:39:27.592Z,32.50
2018-09-19T12:42:33.355Z,32.00
2018-09-19T12:45:38.697Z,32.10
2018-09-19T12:48:44.082Z,31.40
2018-09-19T12:51:49.437Z,31.10
2018-09-19T12:54:54.958Z,32.10
2018-09-19T12:58:00.353Z,33.80
2018-09-19T13:01:05.747Z,33.70
2018-09-19T13:04:11.227Z,34.30
2018-09-19T13:07:16.625Z,33.00
2018-09-19T13:10:22.114Z,31.90
2018-09-19T13:13:27.490Z,31.60
2018-09-19T13:16:32.878Z,32.00
2018-09-19T13:19:38.358Z,31.70
2018-09-19T13:22:43.731Z,31.80
2018-09-19T13:25:49.118Z,31.70
2018-09-19T13:28:54.526Z,31.80
2018-09-19T13:31:59.914Z,32.40
2018-09-19T13:35:07.745Z,33.50
2018-09-19T13:38:13.134Z,35.10
2018-09-19T13:41:18.509Z,36.10
2018-09-19T13:44:23.956Z,37.30
2018-09-19T13:47:29.409Z,38.50
2018-09-19T13:51:16.189Z,39.20
2018-09-19T13:54:21.576Z,39.60
2018-09-19T13:57:27.533Z,40.60
2018-09-19T14:00:33.040Z,41.20
2018-09-19T14:03:38.475Z,41.50
2018-09-19T14:06:43.862Z,41.70
2018-09-19T14:09:49.278Z,41.90
2018-09-19T14:12:55.166Z,41.80
2018-09-19T14:16:00.618Z,42.10
2018-09-19T14:19:06.609Z,42.90
2018-09-19T14:22:11.990Z,42.80
2018-09-19T14:25:17.434Z,43.00
2018-09-19T14:28:23.205Z,43.60
2018-09-19T14:31:28.842Z,43.30
2018-09-19T14:34:34.306Z,43.60
2018-09-19T14:37:39.689Z,43.70
2018-09-19T14:40:45.098Z,44.00
2018-09-19T14:43:50.486Z,44.10
2018-09-19T14:46:55.891Z,45.00
2018-09-19T14:50:01.290Z,44.70
2018-09-19T14:53:06.730Z,44.30
2018-09-19T14:56:12.320Z,44.80
2018-09-19T14:59:18.195Z,45.00
2018-09-19T15:02:23.744Z,44.90
2018-09-19T15:05:29.142Z,45.50
2018-09-19T15:08:34.682Z,45.50
2018-09-19T15:11:40.552Z,45.90
2018-09-19T15:14:45.929Z,46.10
2018-09-19T15:17:51.368Z,46.40
2018-09-19T15:20:56.785Z,46.20
2018-09-19T15:24:02.247Z,46.20
2018-09-19T15:27:08.379Z,46.40
2018-09-19T15:30:13.787Z,46.50
2018-09-19T15:33:19.966Z,46.40
2018-09-19T15:36:25.390Z,46.70
2018-09-19T15:39:30.805Z,46.70
2018-09-19T15:42:36.228Z,47.80
2018-09-19T15:45:41.805Z,47.10
2018-09-19T15:48:47.300Z,47.00
2018-09-19T15:51:53.178Z,46.90
2018-09-19T15:54:58.719Z,47.40
2018-09-19T15:58:04.074Z,47.40
2018-09-19T16:01:09.865Z,47.60
2018-09-19T16:04:15.206Z,47.50
2018-09-19T16:07:20.614Z,47.60
2018-09-19T16:10:25.982Z,47.90
2018-09-19T16:13:31.357Z,48.80
2018-09-19T16:16:36.723Z,48.40
2018-09-19T16:19:42.100Z,48.50
2018-09-19T16:22:47.471Z,48.70
2018-09-19T16:25:52.849Z,49.50
2018-09-19T16:28:59.834Z,48.90
2018-09-19T16:32:05.218Z,49.40
2018-09-19T16:35:10.653Z,49.60
2018-09-19T16:38:16.087Z,49.30
2018-09-19T16:41:21.490Z,49.60
2018-09-19T16:44:26.894Z,49.40
2018-09-19T16:47:32.289Z,49.60
2018-09-19T16:50:37.674Z,49.50
2018-09-19T16:53:43.042Z,48.90
2018-09-19T16:56:48.438Z,49.10
2018-09-19T16:59:53.852Z,49.30
2018-09-19T17:02:59.733Z,49.00
2018-09-19T17:06:05.161Z,49.00
2018-09-19T17:09:10.550Z,49.20
2018-09-19T17:12:16.545Z,49.90
2018-09-19T17:15:22.035Z,49.20
2018-09-19T17:18:27.626Z,49.30
2018-09-19T17:21:33.577Z,49.50
2018-09-19T17:24:38.939Z,49.60
2018-09-19T17:27:44.374Z,49.80
2018-09-19T17:30:50.090Z,50.00
2018-09-19T17:33:55.480Z,50.30
2018-09-19T17:37:01.139Z,50.60
2018-09-19T17:40:06.996Z,50.50
2018-09-19T17:43:12.701Z,50.80
2018-09-19T17:46:18.122Z,51.10
2018-09-19T17:49:23.517Z,51.30
2018-09-19T17:52:28.992Z,51.50
2018-09-19T17:55:36.476Z,51.70
2018-09-19T17:58:42.255Z,51.80
2018-09-19T18:01:48.163Z,52.20
2018-09-19T18:04:53.885Z,52.50
2018-09-19T18:07:59.293Z,52.90
2018-09-19T18:11:04.692Z,53.40
2018-09-19T18:14:10.089Z,53.50
2018-09-19T18:17:15.596Z,54.00
2018-09-19T18:20:21.136Z,54.20
2018-09-19T18:23:26.525Z,54.50
2018-09-19T18:26:32.739Z,53.80
2018-09-19T18:29:38.118Z,53.80
2018-09-19T18:32:43.513Z,53.60
2018-09-19T18:35:48.841Z,53.50
2018-09-19T18:38:54.198Z,53.40
2018-09-19T18:41:59.562Z,53.50
2018-09-19T18:45:05.470Z,53.70
2018-09-19T18:48:10.849Z,53.40
2018-09-19T18:51:16.217Z,53.60
2018-09-19T18:54:22.017Z,53.90
2018-09-19T18:57:27.422Z,53.70
2018-09-19T19:00:32.767Z,53.60
2018-09-19T19:03:38.254Z,54.00
2018-09-19T19:06:44.526Z,53.80
2018-09-19T19:09:49.969Z,53.80
2018-09-19T19:12:55.345Z,53.80
2018-09-19T19:16:00.701Z,53.60
2018-09-19T19:19:06.246Z,53.90
2018-09-19T19:22:11.611Z,53.80
2018-09-19T19:25:16.953Z,54.10
2018-09-19T19:28:22.322Z,54.60
2018-09-19T19:31:27.730Z,54.80
2018-09-19T19:34:33.139Z,55.30
2018-09-19T19:37:38.587Z,55.20
2018-09-19T19:40:44.178Z,55.50
2018-09-19T19:43:49.570Z,55.70
2018-09-19T19:46:54.993Z,56.00
2018-09-19T19:50:00.397Z,55.90
2018-09-19T19:53:06.182Z,55.40
2018-09-19T19:56:11.645Z,55.90
2018-09-19T19:59:17.543Z,55.70
2018-09-19T20:02:23.989Z,56.00
2018-09-19T20:05:29.386Z,55.90
2018-09-19T20:08:35.459Z,56.30
2018-09-19T20:11:41.458Z,56.70
2018-09-19T20:14:46.866Z,57.10
2018-09-19T20:17:52.837Z,57.20
2018-09-19T20:20:58.249Z,57.50
2018-09-19T20:24:03.662Z,57.70
2018-09-19T20:27:09.664Z,57.90
2018-09-19T20:30:15.462Z,57.70
2018-09-19T20:33:20.867Z,57.90
2018-09-19T20:36:26.370Z,58.20
2018-09-19T20:39:31.906Z,58.60
2018-09-19T20:42:48.950Z,59.10
2018-09-19T20:45:54.398Z,58.40
2018-09-19T20:49:00.889Z,58.00
2018-09-19T20:52:19.987Z,57.60
2018-09-19T20:55:27.766Z,57.70
2018-09-19T20:58:33.682Z,57.60
2018-09-19T21:01:39.806Z,58.50
2018-09-19T21:04:45.300Z,58.90
2018-09-19T21:07:51.053Z,57.50
2018-09-19T21:10:57.915Z,57.30
2018-09-19T21:14:03.293Z,57.80
2018-09-19T21:17:08.719Z,58.00
2018-09-19T21:20:14.270Z,58.20
2018-09-19T21:23:20.401Z,57.50
2018-09-19T21:26:25.798Z,57.50
2018-09-19T21:29:31.246Z,58.30
2018-09-19T21:32:36.672Z,58.20
2018-09-19T21:35:42.158Z,58.00
2018-09-19T21:38:47.734Z,58.10
2018-09-19T21:41:53.127Z,58.00
2018-09-19T21:44:58.806Z,58.00
2018-09-19T21:48:04.785Z,58.20
2018-09-19T21:51:10.251Z,58.00
2018-09-19T21:54:15.666Z,58.10
2018-09-19T21:57:21.173Z,58.20
2018-09-19T22:00:26.654Z,58.50
2018-09-19T22:03:32.108Z,58.80
2018-09-19T22:06:37.870Z,58.80
2018-09-19T22:09:43.946Z,58.80
2018-09-19T22:12:49.386Z,58.80
2018-09-19T22:15:54.778Z,58.90
2018-09-19T22:19:00.290Z,59.10
2018-09-19T22:22:05.702Z,59.40
2018-09-19T22:25:11.094Z,59.20
2018-09-19T22:28:16.726Z,59.30
2018-09-19T22:31:22.195Z,59.10
2018-09-19T22:34:27.553Z,59.40
2018-09-19T22:37:33.043Z,59.50
2018-09-19T22:40:38.632Z,59.80
2018-09-19T22:43:44.009Z,59.60
2018-09-19T22:46:49.421Z,59.60
2018-09-19T22:49:54.948Z,59.70
2018-09-19T22:53:00.362Z,59.90
2018-09-19T22:56:06.602Z,60.30
2018-09-19T22:59:12.167Z,60.20
2018-09-19T23:02:17.962Z,60.40
2018-09-19T23:05:23.357Z,60.50
2018-09-19T23:08:28.843Z,60.70
2018-09-19T23:11:34.246Z,60.60
2018-09-19T23:14:39.642Z,60.80
2018-09-19T23:17:45.106Z,61.00
2018-09-19T23:20:50.581Z,61.10
2018-09-19T23:23:55.956Z,61.30
2018-09-19T23:27:01.417Z,61.50
2018-09-19T23:30:06.808Z,61.80
2018-09-19T23:33:12.238Z,61.90
2018-09-19T23:36:17.663Z,61.90
2018-09-19T23:39:23.523Z,62.10
2018-09-19T23:42:29.426Z,62.20
2018-09-19T23:45:34.876Z,62.30
2018-09-19T23:48:40.406Z,62.40
2018-09-19T23:51:47.986Z,62.70
2018-09-19T23:54:53.381Z,62.90
2018-09-19T23:57:58.921Z,63.00
